sensor_id;sensor_type;location;lat;lon;timestamp;P1;durP1;ratioP1;P2;durP2;ratioP2
4732;SDS011;2380;53.668;10.008;2023-08-17T00:01:19;8.30;;;2.33;;
4732;SDS011;2380;53.668;10.008;2023-08-17T00:03:49;8.32;;;2.35;;
4732;SDS011;2380;53.668;10.008;2023-08-17T00:06:19;8.25;;;2.42;;
4732;SDS011;2380;53.668;10.008;2023-08-17T00:08:51;8.73;;;2.90;;
4732;SDS011;2380;53.668;10.008;2023-08-17T00:11:21;7.13;;;2.50;;
4732;SDS011;2380;53.668;10.008;2023-08-17T00:13:50;7.40;;;2.13;;
4732;SDS011;2380;53.668;10.008;2023-08-17T00:16:20;7.30;;;2.50;;
4732;SDS011;2380;53.668;10.008;2023-08-17T00:18:50;7.07;;;2.60;;
4732;SDS011;2380;53.668;10.008;2023-08-17T00:21:19;7.70;;;2.80;;
4732;SDS011;2380;53.668;10.008;2023-08-17T00:23:51;6.18;;;2.42;;
4732;SDS011;2380;53.668;10.008;2023-08-17T00:26:23;6.00;;;2.30;;
4732;SDS011;2380;53.668;10.008;2023-08-17T00:28:54;10.45;;;2.50;;
4732;SDS011;2380;53.668;10.008;2023-08-17T00:31:24;10.80;;;2.50;;
4732;SDS011;2380;53.668;10.008;2023-08-17T00:33:53;8.70;;;2.53;;
4732;SDS011;2380;53.668;10.008;2023-08-17T00:36:23;6.95;;;2.53;;
4732;SDS011;2380;53.668;10.008;2023-08-17T00:38:55;6.95;;;2.60;;
4732;SDS011;2380;53.668;10.008;2023-08-17T00:41:24;6.45;;;2.20;;
4732;SDS011;2380;53.668;10.008;2023-08-17T00:43:55;9.05;;;2.40;;
4732;SDS011;2380;53.668;10.008;2023-08-17T00:46:24;7.05;;;3.15;;
4732;SDS011;2380;53.668;10.008;2023-08-17T00:48:54;5.45;;;2.30;;
4732;SDS011;2380;53.668;10.008;2023-08-17T00:51:24;6.10;;;2.30;;
4732;SDS011;2380;53.668;10.008;2023-08-17T00:53:58;9.15;;;2.63;;
4732;SDS011;2380;53.668;10.008;2023-08-17T00:56:29;5.70;;;2.70;;
4732;SDS011;2380;53.668;10.008;2023-08-17T00:58:59;6.10;;;2.60;;
4732;SDS011;2380;53.668;10.008;2023-08-17T01:01:29;6.10;;;2.60;;
4732;SDS011;2380;53.668;10.008;2023-08-17T01:03:59;7.40;;;2.65;;
4732;SDS011;2380;53.668;10.008;2023-08-17T01:06:29;5.78;;;2.20;;
4732;SDS011;2380;53.668;10.008;2023-08-17T01:09:01;10.40;;;2.20;;
4732;SDS011;2380;53.668;10.008;2023-08-17T01:11:32;9.10;;;2.60;;
4732;SDS011;2380;53.668;10.008;2023-08-17T01:14:05;7.70;;;2.70;;
4732;SDS011;2380;53.668;10.008;2023-08-17T01:16:40;10.60;;;3.00;;
4732;SDS011;2380;53.668;10.008;2023-08-17T01:19:11;6.23;;;2.47;;
4732;SDS011;2380;53.668;10.008;2023-08-17T01:21:44;6.60;;;2.40;;
4732;SDS011;2380;53.668;10.008;2023-08-17T01:24:21;8.60;;;2.80;;
4732;SDS011;2380;53.668;10.008;2023-08-17T01:26:50;7.00;;;2.50;;
4732;SDS011;2380;53.668;10.008;2023-08-17T01:29:20;6.25;;;2.70;;
4732;SDS011;2380;53.668;10.008;2023-08-17T01:31:52;7.28;;;2.50;;
4732;SDS011;2380;53.668;10.008;2023-08-17T01:34:24;7.22;;;2.65;;
4732;SDS011;2380;53.668;10.008;2023-08-17T01:36:56;10.27;;;2.90;;
4732;SDS011;2380;53.668;10.008;2023-08-17T01:39:30;8.13;;;2.70;;
4732;SDS011;2380;53.668;10.008;2023-08-17T01:42:04;7.72;;;2.80;;
4732;SDS011;2380;53.668;10.008;2023-08-17T01:44:34;8.93;;;3.50;;
4732;SDS011;2380;53.668;10.008;2023-08-17T01:47:04;7.65;;;2.70;;
4732;SDS011;2380;53.668;10.008;2023-08-17T01:49:33;7.22;;;2.72;;
4732;SDS011;2380;53.668;10.008;2023-08-17T01:52:03;8.23;;;2.40;;
4732;SDS011;2380;53.668;10.008;2023-08-17T01:54:35;5.53;;;2.50;;
4732;SDS011;2380;53.668;10.008;2023-08-17T01:57:05;10.52;;;2.50;;
4732;SDS011;2380;53.668;10.008;2023-08-17T01:59:35;7.65;;;2.50;;
4732;SDS011;2380;53.668;10.008;2023-08-17T02:02:04;6.57;;;2.40;;
4732;SDS011;2380;53.668;10.008;2023-08-17T02:04:35;6.63;;;2.90;;
4732;SDS011;2380;53.668;10.008;2023-08-17T02:07:04;5.18;;;2.50;;
4732;SDS011;2380;53.668;10.008;2023-08-17T02:09:36;7.30;;;2.30;;
4732;SDS011;2380;53.668;10.008;2023-08-17T02:12:06;5.30;;;1.90;;
4732;SDS011;2380;53.668;10.008;2023-08-17T02:14:36;6.73;;;2.00;;
4732;SDS011;2380;53.668;10.008;2023-08-17T02:17:06;6.68;;;2.30;;
4732;SDS011;2380;53.668;10.008;2023-08-17T02:19:35;7.40;;;2.47;;
4732;SDS011;2380;53.668;10.008;2023-08-17T02:22:05;7.53;;;2.10;;
4732;SDS011;2380;53.668;10.008;2023-08-17T02:24:37;5.63;;;2.30;;
4732;SDS011;2380;53.668;10.008;2023-08-17T02:27:08;4.97;;;2.13;;
4732;SDS011;2380;53.668;10.008;2023-08-17T02:29:38;9.38;;;2.30;;
4732;SDS011;2380;53.668;10.008;2023-08-17T02:32:08;8.52;;;2.38;;
4732;SDS011;2380;53.668;10.008;2023-08-17T02:34:38;6.45;;;2.13;;
4732;SDS011;2380;53.668;10.008;2023-08-17T02:37:08;7.57;;;2.57;;
4732;SDS011;2380;53.668;10.008;2023-08-17T02:39:40;5.43;;;2.30;;
4732;SDS011;2380;53.668;10.008;2023-08-17T02:42:10;5.20;;;2.30;;
4732;SDS011;2380;53.668;10.008;2023-08-17T02:44:39;5.93;;;2.15;;
4732;SDS011;2380;53.668;10.008;2023-08-17T02:47:09;7.80;;;2.50;;
4732;SDS011;2380;53.668;10.008;2023-08-17T02:49:39;5.18;;;2.20;;
4732;SDS011;2380;53.668;10.008;2023-08-17T02:52:08;6.57;;;1.90;;
4732;SDS011;2380;53.668;10.008;2023-08-17T02:54:40;7.18;;;2.65;;
4732;SDS011;2380;53.668;10.008;2023-08-17T02:57:10;6.30;;;2.30;;
4732;SDS011;2380;53.668;10.008;2023-08-17T02:59:40;3.92;;;2.00;;
4732;SDS011;2380;53.668;10.008;2023-08-17T03:02:09;4.65;;;2.15;;
4732;SDS011;2380;53.668;10.008;2023-08-17T03:04:39;5.63;;;2.40;;
4732;SDS011;2380;53.668;10.008;2023-08-17T03:07:09;6.25;;;2.05;;
4732;SDS011;2380;53.668;10.008;2023-08-17T03:09:41;5.07;;;2.10;;
4732;SDS011;2380;53.668;10.008;2023-08-17T03:12:11;5.10;;;2.30;;
4732;SDS011;2380;53.668;10.008;2023-08-17T03:14:40;4.72;;;2.10;;
4732;SDS011;2380;53.668;10.008;2023-08-17T03:17:10;6.50;;;2.10;;
4732;SDS011;2380;53.668;10.008;2023-08-17T03:19:39;8.80;;;2.33;;
4732;SDS011;2380;53.668;10.008;2023-08-17T03:22:09;6.13;;;2.10;;
4732;SDS011;2380;53.668;10.008;2023-08-17T03:24:41;4.82;;;1.90;;
4732;SDS011;2380;53.668;10.008;2023-08-17T03:27:11;7.80;;;2.53;;
4732;SDS011;2380;53.668;10.008;2023-08-17T03:29:41;5.43;;;2.00;;
4732;SDS011;2380;53.668;10.008;2023-08-17T03:32:10;5.15;;;2.05;;
4732;SDS011;2380;53.668;10.008;2023-08-17T03:34:40;5.70;;;1.90;;
4732;SDS011;2380;53.668;10.008;2023-08-17T03:37:09;6.25;;;2.28;;
4732;SDS011;2380;53.668;10.008;2023-08-17T03:39:42;5.63;;;2.08;;
4732;SDS011;2380;53.668;10.008;2023-08-17T03:42:11;3.72;;;1.90;;
4732;SDS011;2380;53.668;10.008;2023-08-17T03:44:41;6.47;;;2.80;;
4732;SDS011;2380;53.668;10.008;2023-08-17T03:47:10;5.30;;;2.20;;
4732;SDS011;2380;53.668;10.008;2023-08-17T03:49:40;7.18;;;1.98;;
4732;SDS011;2380;53.668;10.008;2023-08-17T03:52:10;5.10;;;2.45;;
4732;SDS011;2380;53.668;10.008;2023-08-17T03:54:42;6.03;;;2.13;;
4732;SDS011;2380;53.668;10.008;2023-08-17T03:57:12;6.60;;;2.40;;
4732;SDS011;2380;53.668;10.008;2023-08-17T03:59:42;8.70;;;2.70;;
4732;SDS011;2380;53.668;10.008;2023-08-17T04:02:11;6.63;;;2.40;;
4732;SDS011;2380;53.668;10.008;2023-08-17T04:04:41;4.50;;;2.10;;
4732;SDS011;2380;53.668;10.008;2023-08-17T04:07:11;9.10;;;2.90;;
4732;SDS011;2380;53.668;10.008;2023-08-17T04:09:45;6.60;;;2.28;;
4732;SDS011;2380;53.668;10.008;2023-08-17T04:12:15;8.33;;;2.30;;
4732;SDS011;2380;53.668;10.008;2023-08-17T04:14:45;5.53;;;2.30;;
4732;SDS011;2380;53.668;10.008;2023-08-17T04:17:15;7.53;;;4.40;;
4732;SDS011;2380;53.668;10.008;2023-08-17T04:19:44;15.73;;;8.80;;
4732;SDS011;2380;53.668;10.008;2023-08-17T04:22:14;20.10;;;11.75;;
4732;SDS011;2380;53.668;10.008;2023-08-17T04:24:46;7.25;;;2.70;;
4732;SDS011;2380;53.668;10.008;2023-08-17T04:27:16;12.20;;;6.65;;
4732;SDS011;2380;53.668;10.008;2023-08-17T04:29:46;11.20;;;4.50;;
4732;SDS011;2380;53.668;10.008;2023-08-17T04:32:15;17.77;;;9.37;;
4732;SDS011;2380;53.668;10.008;2023-08-17T04:34:45;13.85;;;6.97;;
4732;SDS011;2380;53.668;10.008;2023-08-17T04:37:15;6.75;;;3.05;;
4732;SDS011;2380;53.668;10.008;2023-08-17T04:39:47;11.70;;;5.60;;
4732;SDS011;2380;53.668;10.008;2023-08-17T04:42:17;17.90;;;10.25;;
4732;SDS011;2380;53.668;10.008;2023-08-17T04:44:47;11.73;;;4.75;;
4732;SDS011;2380;53.668;10.008;2023-08-17T04:47:17;11.70;;;5.45;;
4732;SDS011;2380;53.668;10.008;2023-08-17T04:49:46;9.27;;;5.30;;
4732;SDS011;2380;53.668;10.008;2023-08-17T04:52:16;17.58;;;8.88;;
4732;SDS011;2380;53.668;10.008;2023-08-17T04:54:48;5.47;;;2.00;;
4732;SDS011;2380;53.668;10.008;2023-08-17T04:57:18;4.72;;;2.22;;
4732;SDS011;2380;53.668;10.008;2023-08-17T04:59:48;6.53;;;2.90;;
4732;SDS011;2380;53.668;10.008;2023-08-17T05:02:17;4.72;;;2.72;;
4732;SDS011;2380;53.668;10.008;2023-08-17T05:04:47;7.57;;;3.40;;
4732;SDS011;2380;53.668;10.008;2023-08-17T05:07:17;6.78;;;2.30;;
4732;SDS011;2380;53.668;10.008;2023-08-17T05:09:49;7.53;;;2.90;;
4732;SDS011;2380;53.668;10.008;2023-08-17T05:12:19;8.48;;;3.45;;
4732;SDS011;2380;53.668;10.008;2023-08-17T05:14:49;5.70;;;2.40;;
4732;SDS011;2380;53.668;10.008;2023-08-17T05:17:18;12.80;;;6.88;;
4732;SDS011;2380;53.668;10.008;2023-08-17T05:19:48;8.90;;;5.00;;
4732;SDS011;2380;53.668;10.008;2023-08-17T05:22:18;10.32;;;3.50;;
4732;SDS011;2380;53.668;10.008;2023-08-17T05:24:50;20.70;;;10.90;;
4732;SDS011;2380;53.668;10.008;2023-08-17T05:27:20;10.02;;;2.80;;
4732;SDS011;2380;53.668;10.008;2023-08-17T05:29:50;8.32;;;3.00;;
4732;SDS011;2380;53.668;10.008;2023-08-17T05:32:20;5.43;;;2.50;;
4732;SDS011;2380;53.668;10.008;2023-08-17T05:34:49;7.80;;;3.50;;
4732;SDS011;2380;53.668;10.008;2023-08-17T05:37:19;6.32;;;3.05;;
4732;SDS011;2380;53.668;10.008;2023-08-17T05:39:52;6.50;;;3.03;;
4732;SDS011;2380;53.668;10.008;2023-08-17T05:42:21;6.10;;;2.92;;
4732;SDS011;2380;53.668;10.008;2023-08-17T05:44:51;11.40;;;3.33;;
4732;SDS011;2380;53.668;10.008;2023-08-17T05:47:21;6.75;;;3.20;;
4732;SDS011;2380;53.668;10.008;2023-08-17T05:49:51;7.20;;;3.40;;
4732;SDS011;2380;53.668;10.008;2023-08-17T05:52:20;5.15;;;3.25;;
4732;SDS011;2380;53.668;10.008;2023-08-17T05:54:52;8.50;;;3.40;;
4732;SDS011;2380;53.668;10.008;2023-08-17T05:57:22;6.85;;;3.47;;
4732;SDS011;2380;53.668;10.008;2023-08-17T05:59:52;8.50;;;3.83;;
4732;SDS011;2380;53.668;10.008;2023-08-17T06:02:22;7.90;;;3.50;;
4732;SDS011;2380;53.668;10.008;2023-08-17T06:04:52;11.32;;;4.13;;
4732;SDS011;2380;53.668;10.008;2023-08-17T06:07:21;9.07;;;4.18;;
4732;SDS011;2380;53.668;10.008;2023-08-17T06:09:54;8.70;;;4.30;;
4732;SDS011;2380;53.668;10.008;2023-08-17T06:12:23;12.85;;;4.30;;
4732;SDS011;2380;53.668;10.008;2023-08-17T06:14:53;8.50;;;4.40;;
4732;SDS011;2380;53.668;10.008;2023-08-17T06:17:23;6.82;;;3.90;;
4732;SDS011;2380;53.668;10.008;2023-08-17T06:19:53;10.53;;;4.67;;
4732;SDS011;2380;53.668;10.008;2023-08-17T06:22:22;8.27;;;4.18;;
4732;SDS011;2380;53.668;10.008;2023-08-17T06:24:55;9.27;;;4.40;;
4732;SDS011;2380;53.668;10.008;2023-08-17T06:27:25;7.25;;;4.47;;
4732;SDS011;2380;53.668;10.008;2023-08-17T06:29:55;8.90;;;4.60;;
4732;SDS011;2380;53.668;10.008;2023-08-17T06:32:24;10.55;;;5.00;;
4732;SDS011;2380;53.668;10.008;2023-08-17T06:34:54;8.60;;;4.90;;
4732;SDS011;2380;53.668;10.008;2023-08-17T06:37:24;9.77;;;5.20;;
4732;SDS011;2380;53.668;10.008;2023-08-17T06:39:56;13.85;;;5.30;;
4732;SDS011;2380;53.668;10.008;2023-08-17T06:42:26;12.23;;;5.93;;
4732;SDS011;2380;53.668;10.008;2023-08-17T06:44:56;14.73;;;5.63;;
4732;SDS011;2380;53.668;10.008;2023-08-17T06:47:25;11.27;;;5.55;;
4732;SDS011;2380;53.668;10.008;2023-08-17T06:49:55;13.60;;;5.70;;
4732;SDS011;2380;53.668;10.008;2023-08-17T06:52:26;13.70;;;6.80;;
4732;SDS011;2380;53.668;10.008;2023-08-17T06:54:58;12.88;;;6.45;;
4732;SDS011;2380;53.668;10.008;2023-08-17T06:57:28;11.00;;;5.70;;
4732;SDS011;2380;53.668;10.008;2023-08-17T06:59:57;13.40;;;5.95;;
4732;SDS011;2380;53.668;10.008;2023-08-17T07:02:27;12.38;;;7.03;;
4732;SDS011;2380;53.668;10.008;2023-08-17T07:05:17;11.23;;;5.80;;
4732;SDS011;2380;53.668;10.008;2023-08-17T07:07:47;15.70;;;7.17;;
4732;SDS011;2380;53.668;10.008;2023-08-17T07:10:19;12.05;;;5.90;;
4732;SDS011;2380;53.668;10.008;2023-08-17T07:12:49;12.80;;;6.37;;
4732;SDS011;2380;53.668;10.008;2023-08-17T07:15:19;11.82;;;5.72;;
4732;SDS011;2380;53.668;10.008;2023-08-17T07:17:49;11.73;;;5.97;;
4732;SDS011;2380;53.668;10.008;2023-08-17T07:20:18;10.15;;;5.72;;
4732;SDS011;2380;53.668;10.008;2023-08-17T07:22:48;9.43;;;5.70;;
4732;SDS011;2380;53.668;10.008;2023-08-17T07:25:20;15.48;;;6.55;;
4732;SDS011;2380;53.668;10.008;2023-08-17T07:27:50;10.25;;;5.80;;
4732;SDS011;2380;53.668;10.008;2023-08-17T07:30:20;13.80;;;6.13;;
4732;SDS011;2380;53.668;10.008;2023-08-17T07:32:49;10.40;;;6.53;;
4732;SDS011;2380;53.668;10.008;2023-08-17T07:35:19;10.60;;;6.65;;
4732;SDS011;2380;53.668;10.008;2023-08-17T07:37:49;11.25;;;6.50;;
4732;SDS011;2380;53.668;10.008;2023-08-17T07:40:37;12.65;;;6.90;;
4732;SDS011;2380;53.668;10.008;2023-08-17T07:43:09;11.15;;;5.78;;
4732;SDS011;2380;53.668;10.008;2023-08-17T07:45:38;12.43;;;7.13;;
4732;SDS011;2380;53.668;10.008;2023-08-17T07:48:08;9.65;;;6.10;;
4732;SDS011;2380;53.668;10.008;2023-08-17T07:50:38;12.63;;;6.90;;
4732;SDS011;2380;53.668;10.008;2023-08-17T07:53:08;10.50;;;6.57;;
4732;SDS011;2380;53.668;10.008;2023-08-17T07:55:41;12.48;;;7.00;;
4732;SDS011;2380;53.668;10.008;2023-08-17T07:58:10;11.63;;;6.70;;
4732;SDS011;2380;53.668;10.008;2023-08-17T08:00:40;12.00;;;6.70;;
4732;SDS011;2380;53.668;10.008;2023-08-17T08:03:10;10.80;;;6.47;;
4732;SDS011;2380;53.668;10.008;2023-08-17T08:05:39;10.55;;;6.20;;
4732;SDS011;2380;53.668;10.008;2023-08-17T08:08:09;11.70;;;6.78;;
4732;SDS011;2380;53.668;10.008;2023-08-17T08:10:42;19.75;;;12.00;;
4732;SDS011;2380;53.668;10.008;2023-08-17T08:13:12;17.92;;;10.60;;
4732;SDS011;2380;53.668;10.008;2023-08-17T08:15:43;14.68;;;9.55;;
4732;SDS011;2380;53.668;10.008;2023-08-17T08:18:13;22.38;;;13.40;;
4732;SDS011;2380;53.668;10.008;2023-08-17T08:20:42;15.13;;;10.10;;
4732;SDS011;2380;53.668;10.008;2023-08-17T08:23:12;21.63;;;12.73;;
4732;SDS011;2380;53.668;10.008;2023-08-17T08:25:44;21.38;;;12.80;;
4732;SDS011;2380;53.668;10.008;2023-08-17T08:28:14;16.85;;;9.93;;
4732;SDS011;2380;53.668;10.008;2023-08-17T08:30:43;19.92;;;11.70;;
4732;SDS011;2380;53.668;10.008;2023-08-17T08:33:13;19.15;;;11.32;;
4732;SDS011;2380;53.668;10.008;2023-08-17T08:35:43;15.50;;;9.07;;
4732;SDS011;2380;53.668;10.008;2023-08-17T08:38:13;13.27;;;7.93;;
4732;SDS011;2380;53.668;10.008;2023-08-17T08:40:46;12.75;;;7.47;;
4732;SDS011;2380;53.668;10.008;2023-08-17T08:43:16;13.50;;;8.05;;
4732;SDS011;2380;53.668;10.008;2023-08-17T08:45:46;9.68;;;6.60;;
4732;SDS011;2380;53.668;10.008;2023-08-17T08:48:16;13.25;;;7.20;;
4732;SDS011;2380;53.668;10.008;2023-08-17T08:50:48;11.18;;;6.95;;
4732;SDS011;2380;53.668;10.008;2023-08-17T08:53:20;16.52;;;8.50;;
4732;SDS011;2380;53.668;10.008;2023-08-17T08:56:04;12.25;;;6.57;;
4732;SDS011;2380;53.668;10.008;2023-08-17T08:58:36;12.02;;;6.50;;
4732;SDS011;2380;53.668;10.008;2023-08-17T09:01:06;12.20;;;6.68;;
4732;SDS011;2380;53.668;10.008;2023-08-17T09:03:37;12.93;;;6.10;;
4732;SDS011;2380;53.668;10.008;2023-08-17T09:06:07;9.32;;;5.55;;
4732;SDS011;2380;53.668;10.008;2023-08-17T09:08:38;10.20;;;5.70;;
4732;SDS011;2380;53.668;10.008;2023-08-17T09:11:10;7.65;;;4.93;;
4732;SDS011;2380;53.668;10.008;2023-08-17T09:13:40;7.00;;;4.80;;
4732;SDS011;2380;53.668;10.008;2023-08-17T09:16:09;6.85;;;5.30;;
4732;SDS011;2380;53.668;10.008;2023-08-17T09:18:39;8.38;;;5.00;;
4732;SDS011;2380;53.668;10.008;2023-08-17T09:21:09;9.20;;;4.90;;
4732;SDS011;2380;53.668;10.008;2023-08-17T09:23:52;7.38;;;4.60;;
4732;SDS011;2380;53.668;10.008;2023-08-17T09:26:29;8.70;;;4.90;;
4732;SDS011;2380;53.668;10.008;2023-08-17T09:29:00;7.78;;;4.50;;
4732;SDS011;2380;53.668;10.008;2023-08-17T09:31:30;8.23;;;4.60;;
4732;SDS011;2380;53.668;10.008;2023-08-17T09:34:01;6.00;;;4.05;;
4732;SDS011;2380;53.668;10.008;2023-08-17T09:36:35;8.27;;;4.03;;
4732;SDS011;2380;53.668;10.008;2023-08-17T09:39:05;9.00;;;4.57;;
4732;SDS011;2380;53.668;10.008;2023-08-17T09:41:43;8.30;;;4.00;;
4732;SDS011;2380;53.668;10.008;2023-08-17T09:44:13;8.50;;;4.30;;
4732;SDS011;2380;53.668;10.008;2023-08-17T09:46:43;8.45;;;4.45;;
4732;SDS011;2380;53.668;10.008;2023-08-17T09:49:13;9.93;;;4.63;;
4732;SDS011;2380;53.668;10.008;2023-08-17T09:51:43;8.88;;;4.90;;
4732;SDS011;2380;53.668;10.008;2023-08-17T09:54:22;10.02;;;5.20;;
4732;SDS011;2380;53.668;10.008;2023-08-17T09:56:57;7.15;;;3.58;;
4732;SDS011;2380;53.668;10.008;2023-08-17T09:59:26;6.60;;;2.75;;
4732;SDS011;2380;53.668;10.008;2023-08-17T10:01:57;5.05;;;2.72;;
4732;SDS011;2380;53.668;10.008;2023-08-17T10:04:27;9.57;;;4.30;;
4732;SDS011;2380;53.668;10.008;2023-08-17T10:06:58;7.90;;;3.40;;
4732;SDS011;2380;53.668;10.008;2023-08-17T10:09:31;4.85;;;2.88;;
4732;SDS011;2380;53.668;10.008;2023-08-17T10:12:10;6.47;;;3.17;;
4732;SDS011;2380;53.668;10.008;2023-08-17T10:14:45;9.48;;;5.20;;
4732;SDS011;2380;53.668;10.008;2023-08-17T10:17:26;4.90;;;2.30;;
4732;SDS011;2380;53.668;10.008;2023-08-17T10:19:58;4.30;;;2.60;;
4732;SDS011;2380;53.668;10.008;2023-08-17T10:22:33;6.50;;;3.40;;
4732;SDS011;2380;53.668;10.008;2023-08-17T10:25:05;4.75;;;2.50;;
4732;SDS011;2380;53.668;10.008;2023-08-17T10:27:37;4.40;;;2.67;;
4732;SDS011;2380;53.668;10.008;2023-08-17T10:30:08;4.47;;;2.65;;
4732;SDS011;2380;53.668;10.008;2023-08-17T10:32:39;4.70;;;2.30;;
4732;SDS011;2380;53.668;10.008;2023-08-17T10:35:12;5.47;;;2.50;;
4732;SDS011;2380;53.668;10.008;2023-08-17T10:37:42;5.67;;;2.70;;
4732;SDS011;2380;53.668;10.008;2023-08-17T10:40:12;5.63;;;2.70;;
4732;SDS011;2380;53.668;10.008;2023-08-17T10:42:44;5.90;;;3.10;;
4732;SDS011;2380;53.668;10.008;2023-08-17T10:45:26;6.90;;;2.90;;
4732;SDS011;2380;53.668;10.008;2023-08-17T10:51:02;7.78;;;3.83;;
4732;SDS011;2380;53.668;10.008;2023-08-17T10:53:34;8.85;;;5.00;;
4732;SDS011;2380;53.668;10.008;2023-08-17T10:56:12;6.18;;;3.70;;
4732;SDS011;2380;53.668;10.008;2023-08-17T10:58:45;5.82;;;3.70;;
4732;SDS011;2380;53.668;10.008;2023-08-17T11:01:15;5.30;;;3.40;;
4732;SDS011;2380;53.668;10.008;2023-08-17T11:04:10;6.10;;;3.50;;
4732;SDS011;2380;53.668;10.008;2023-08-17T11:06:41;6.03;;;3.13;;
4732;SDS011;2380;53.668;10.008;2023-08-17T11:09:11;9.57;;;4.50;;
4732;SDS011;2380;53.668;10.008;2023-08-17T11:11:41;7.68;;;5.00;;
4732;SDS011;2380;53.668;10.008;2023-08-17T11:14:18;8.50;;;4.63;;
4732;SDS011;2380;53.668;10.008;2023-08-17T11:16:47;9.15;;;3.80;;
4732;SDS011;2380;53.668;10.008;2023-08-17T11:19:17;11.57;;;5.88;;
4732;SDS011;2380;53.668;10.008;2023-08-17T11:21:47;7.65;;;4.63;;
4732;SDS011;2380;53.668;10.008;2023-08-17T11:24:17;10.43;;;6.20;;
4732;SDS011;2380;53.668;10.008;2023-08-17T11:26:47;11.70;;;7.22;;
4732;SDS011;2380;53.668;10.008;2023-08-17T11:29:19;14.80;;;9.32;;
4732;SDS011;2380;53.668;10.008;2023-08-17T11:31:50;10.80;;;6.82;;
4732;SDS011;2380;53.668;10.008;2023-08-17T11:34:19;11.23;;;6.90;;
4732;SDS011;2380;53.668;10.008;2023-08-17T11:36:49;12.85;;;7.90;;
4732;SDS011;2380;53.668;10.008;2023-08-17T11:39:33;11.20;;;6.70;;
4732;SDS011;2380;53.668;10.008;2023-08-17T11:42:03;12.33;;;7.40;;
4732;SDS011;2380;53.668;10.008;2023-08-17T11:44:35;8.73;;;5.70;;
4732;SDS011;2380;53.668;10.008;2023-08-17T11:47:05;7.53;;;4.70;;
4732;SDS011;2380;53.668;10.008;2023-08-17T11:49:34;8.77;;;4.30;;
4732;SDS011;2380;53.668;10.008;2023-08-17T11:52:05;9.27;;;4.90;;
4732;SDS011;2380;53.668;10.008;2023-08-17T11:54:39;11.13;;;4.70;;
4732;SDS011;2380;53.668;10.008;2023-08-17T11:57:09;8.60;;;4.05;;
4732;SDS011;2380;53.668;10.008;2023-08-17T11:59:41;8.37;;;4.43;;
4732;SDS011;2380;53.668;10.008;2023-08-17T12:02:11;6.78;;;4.30;;
4732;SDS011;2380;53.668;10.008;2023-08-17T12:04:41;6.13;;;4.30;;
4732;SDS011;2380;53.668;10.008;2023-08-17T12:07:13;7.88;;;4.70;;
4732;SDS011;2380;53.668;10.008;2023-08-17T12:09:43;9.50;;;6.50;;
4732;SDS011;2380;53.668;10.008;2023-08-17T12:12:12;13.63;;;7.45;;
4732;SDS011;2380;53.668;10.008;2023-08-17T12:14:45;16.13;;;9.52;;
4732;SDS011;2380;53.668;10.008;2023-08-17T12:17:15;12.27;;;6.73;;
4732;SDS011;2380;53.668;10.008;2023-08-17T12:19:48;17.30;;;11.05;;
4732;SDS011;2380;53.668;10.008;2023-08-17T12:22:19;12.48;;;6.50;;
4732;SDS011;2380;53.668;10.008;2023-08-17T12:24:48;9.32;;;6.07;;
4732;SDS011;2380;53.668;10.008;2023-08-17T12:27:18;10.88;;;6.00;;
4732;SDS011;2380;53.668;10.008;2023-08-17T12:29:50;6.30;;;4.03;;
4732;SDS011;2380;53.668;10.008;2023-08-17T12:32:20;6.90;;;4.30;;
4732;SDS011;2380;53.668;10.008;2023-08-17T12:34:51;7.22;;;3.53;;
4732;SDS011;2380;53.668;10.008;2023-08-17T12:37:20;5.55;;;3.55;;
4732;SDS011;2380;53.668;10.008;2023-08-17T12:39:50;6.95;;;3.88;;
4732;SDS011;2380;53.668;10.008;2023-08-17T12:42:20;5.28;;;3.20;;
4732;SDS011;2380;53.668;10.008;2023-08-17T12:44:52;6.05;;;3.50;;
4732;SDS011;2380;53.668;10.008;2023-08-17T12:47:21;10.63;;;5.80;;
4732;SDS011;2380;53.668;10.008;2023-08-17T12:49:51;8.37;;;4.37;;
4732;SDS011;2380;53.668;10.008;2023-08-17T12:52:21;8.25;;;5.10;;
4732;SDS011;2380;53.668;10.008;2023-08-17T12:54:51;8.98;;;3.95;;
4732;SDS011;2380;53.668;10.008;2023-08-17T12:57:20;5.35;;;3.67;;
4732;SDS011;2380;53.668;10.008;2023-08-17T12:59:52;6.22;;;4.07;;
4732;SDS011;2380;53.668;10.008;2023-08-17T13:02:22;5.60;;;3.97;;
4732;SDS011;2380;53.668;10.008;2023-08-17T13:04:52;5.50;;;4.10;;
4732;SDS011;2380;53.668;10.008;2023-08-17T13:07:22;8.15;;;3.70;;
4732;SDS011;2380;53.668;10.008;2023-08-17T13:09:52;4.88;;;3.80;;
4732;SDS011;2380;53.668;10.008;2023-08-17T13:12:21;15.27;;;8.40;;
4732;SDS011;2380;53.668;10.008;2023-08-17T13:14:54;12.00;;;8.07;;
4732;SDS011;2380;53.668;10.008;2023-08-17T13:17:23;7.57;;;5.30;;
4732;SDS011;2380;53.668;10.008;2023-08-17T13:19:53;6.85;;;5.28;;
4732;SDS011;2380;53.668;10.008;2023-08-17T13:22:23;11.63;;;6.00;;
4732;SDS011;2380;53.668;10.008;2023-08-17T13:24:53;12.02;;;6.53;;
4732;SDS011;2380;53.668;10.008;2023-08-17T13:27:22;9.30;;;5.97;;
4732;SDS011;2380;53.668;10.008;2023-08-17T13:29:54;9.43;;;4.95;;
4732;SDS011;2380;53.668;10.008;2023-08-17T13:32:25;6.00;;;3.50;;
4732;SDS011;2380;53.668;10.008;2023-08-17T13:34:55;6.30;;;3.70;;
4732;SDS011;2380;53.668;10.008;2023-08-17T13:37:25;5.63;;;3.42;;
4732;SDS011;2380;53.668;10.008;2023-08-17T13:39:54;9.15;;;5.07;;
4732;SDS011;2380;53.668;10.008;2023-08-17T13:42:24;7.13;;;3.58;;
4732;SDS011;2380;53.668;10.008;2023-08-17T13:44:57;5.73;;;2.30;;
4732;SDS011;2380;53.668;10.008;2023-08-17T13:47:26;5.18;;;2.58;;
4732;SDS011;2380;53.668;10.008;2023-08-17T13:49:56;5.57;;;2.60;;
4732;SDS011;2380;53.668;10.008;2023-08-17T13:52:26;4.30;;;1.73;;
4732;SDS011;2380;53.668;10.008;2023-08-17T13:54:55;3.60;;;1.70;;
4732;SDS011;2380;53.668;10.008;2023-08-17T13:57:25;4.88;;;1.70;;
4732;SDS011;2380;53.668;10.008;2023-08-17T13:59:57;3.80;;;1.90;;
4732;SDS011;2380;53.668;10.008;2023-08-17T14:02:27;5.55;;;2.40;;
4732;SDS011;2380;53.668;10.008;2023-08-17T14:04:57;5.40;;;2.50;;
4732;SDS011;2380;53.668;10.008;2023-08-17T14:07:27;7.35;;;4.05;;
4732;SDS011;2380;53.668;10.008;2023-08-17T14:09:57;12.02;;;5.20;;
4732;SDS011;2380;53.668;10.008;2023-08-17T14:12:33;5.68;;;2.90;;
4732;SDS011;2380;53.668;10.008;2023-08-17T14:15:06;8.90;;;5.13;;
4732;SDS011;2380;53.668;10.008;2023-08-17T14:17:36;6.47;;;3.40;;
4732;SDS011;2380;53.668;10.008;2023-08-17T14:20:06;6.15;;;3.75;;
4732;SDS011;2380;53.668;10.008;2023-08-17T14:22:39;5.55;;;3.25;;
4732;SDS011;2380;53.668;10.008;2023-08-17T14:25:08;4.78;;;2.75;;
4732;SDS011;2380;53.668;10.008;2023-08-17T14:27:38;4.07;;;2.55;;
4732;SDS011;2380;53.668;10.008;2023-08-17T14:30:10;5.28;;;2.40;;
4732;SDS011;2380;53.668;10.008;2023-08-17T14:32:40;6.22;;;2.78;;
4732;SDS011;2380;53.668;10.008;2023-08-17T14:35:10;4.63;;;2.07;;
4732;SDS011;2380;53.668;10.008;2023-08-17T14:37:39;4.20;;;1.70;;
4732;SDS011;2380;53.668;10.008;2023-08-17T14:40:09;3.20;;;1.50;;
4732;SDS011;2380;53.668;10.008;2023-08-17T14:42:39;4.47;;;2.17;;
4732;SDS011;2380;53.668;10.008;2023-08-17T14:45:12;8.45;;;2.88;;
4732;SDS011;2380;53.668;10.008;2023-08-17T14:47:41;3.90;;;1.42;;
4732;SDS011;2380;53.668;10.008;2023-08-17T14:50:11;2.40;;;1.38;;
4732;SDS011;2380;53.668;10.008;2023-08-17T14:52:41;3.08;;;1.40;;
4732;SDS011;2380;53.668;10.008;2023-08-17T14:55:10;6.10;;;2.95;;
4732;SDS011;2380;53.668;10.008;2023-08-17T14:57:41;3.83;;;2.40;;
4732;SDS011;2380;53.668;10.008;2023-08-17T15:00:14;4.80;;;1.80;;
4732;SDS011;2380;53.668;10.008;2023-08-17T15:02:44;6.95;;;2.67;;
4732;SDS011;2380;53.668;10.008;2023-08-17T15:05:13;4.55;;;2.72;;
4732;SDS011;2380;53.668;10.008;2023-08-17T15:07:43;5.53;;;2.55;;
4732;SDS011;2380;53.668;10.008;2023-08-17T15:10:13;5.25;;;2.90;;
4732;SDS011;2380;53.668;10.008;2023-08-17T15:12:42;6.00;;;3.13;;
4732;SDS011;2380;53.668;10.008;2023-08-17T15:15:15;5.75;;;2.92;;
4732;SDS011;2380;53.668;10.008;2023-08-17T15:17:46;7.05;;;3.28;;
4732;SDS011;2380;53.668;10.008;2023-08-17T15:20:16;6.27;;;3.13;;
4732;SDS011;2380;53.668;10.008;2023-08-17T15:22:46;4.95;;;2.65;;